Time,TemperatureF,DewpointF,PressureIn,WindDirection,WindDirectionDegrees,WindSpeedMPH,WindSpeedGustMPH,Humidity,HourlyPrecipIn,Conditions,Clouds,dailyrainin,SoftwareType,DateUTC
2013-03-29 00:00:00,34.3,11.3,30.22,NW,315,0.0,0.0,38,0.00,CLR,,0.00,WeatherDisplay:10.37,2013-03-29 04:00:00,
2013-03-29 00:10:00,34.3,11.9,30.22,NW,315,0.0,0.0,39,0.00,CLR,,0.00,WeatherDisplay:10.37,2013-03-29 04:10:00,
2013-03-29 00:20:00,33.8,12.0,30.22,NW,315,0.0,0.0,40,0.00,CLR,,0.00,WeatherDisplay:10.37,2013-03-29 04:20:00,
2013-03-29 00:30:00,33.5,11.7,30.22,NW,315,0.0,0.0,40,0.00,CLR,,0.00,WeatherDisplay:10.37,2013-03-29 04:30:00,
2013-03-29 00:40:00,33.0,11.3,30.22,NW,315,0.0,0.0,40,0.00,CLR,,0.00,WeatherDisplay:10.37,2013-03-29 04:40:00,
2013-03-29 00:50:00,32.5,10.9,30.22,WNW,292,0.0,0.0,40,0.00,CLR,,0.00,WeatherDisplay:10.37,2013-03-29 04:50:00,
2013-03-29 01:00:00,32.2,11.6,30.22,WNW,297,1.0,2.0,42,0.00,CLR,,0.00,WeatherDisplay:10.37,2013-03-29 05:00:00,
2013-03-29 01:10:00,32.5,12.0,30.22,NNW,338,0.0,2.0,42,0.00,CLR,,0.00,WeatherDisplay:10.37,2013-03-29 05:10:00,
2013-03-29 01:20:00,32.4,11.2,30.22,North,355,0.0,0.0,41,0.00,CLR,,0.00,WeatherDisplay:10.37,2013-03-29 05:20:00,
2013-03-29 01:30:00,31.8,10.8,30.22,NNW,338,0.0,0.0,41,0.00,CLR,,0.00,WeatherDisplay:10.37,2013-03-29 05:30:00,
2013-03-29 01:40:00,31.3,10.8,30.22,WNW,292,0.0,0.0,42,0.00,CLR,,0.00,WeatherDisplay:10.37,2013-03-29 05:40:00,
2013-03-29 01:50:00,31.6,11.7,30.19,North,351,0.0,0.0,43,0.00,CLR,,0.00,WeatherDisplay:10.37,2013-03-29 05:50:00,
2013-03-29 02:00:00,31.6,11.7,30.19,North,0,0.0,0.0,43,0.00,CLR,,0.00,WeatherDisplay:10.37,2013-03-29 06:00:00,
2013-03-29 02:10:00,31.1,11.7,30.19,North,0,0.0,0.0,44,0.00,CLR,,0.00,WeatherDisplay:10.37,2013-03-29 06:10:00,
2013-03-29 02:20:00,31.3,12.4,30.22,North,0,0.0,0.0,45,0.00,CLR,,0.00,WeatherDisplay:10.37,2013-03-29 06:20:00,
2013-03-29 02:30:00,31.8,11.8,30.22,North,9,0.0,0.0,43,0.00,CLR,,0.00,WeatherDisplay:10.37,2013-03-29 06:30:00,
2013-03-29 02:40:00,31.5,11.5,30.22,NNE,24,0.0,0.0,43,0.00,CLR,,0.00,WeatherDisplay:10.37,2013-03-29 06:40:00,
2013-03-29 02:50:00,30.9,11.5,30.22,NNW,341,0.0,0.0,44,0.00,CLR,,0.00,WeatherDisplay:10.37,2013-03-29 06:50:00,
2013-03-29 03:00:00,31.1,11.7,30.22,NNW,338,0.0,0.0,44,0.00,CLR,,0.00,WeatherDisplay:10.37,2013-03-29 07:00:00,
2013-03-29 03:10:00,30.9,11.0,30.22,NNW,338,0.0,0.0,43,0.00,CLR,,0.00,WeatherDisplay:10.37,2013-03-29 07:10:00,
2013-03-29 03:20:00,30.2,10.9,30.19,NW,306,0.0,0.0,44,0.00,CLR,,0.00,WeatherDisplay:10.37,2013-03-29 07:20:00,
2013-03-29 03:30:00,30.0,11.7,30.19,North,4,0.0,0.0,46,0.00,CLR,,0.00,WeatherDisplay:10.37,2013-03-29 07:30:00,
2013-03-29 03:40:00,29.8,11.1,30.19,NNW,338,0.0,0.0,45,0.00,CLR,,0.00,WeatherDisplay:10.37,2013-03-29 07:40:00,
2013-03-29 03:50:00,29.7,11.4,30.22,NW,323,0.0,0.0,46,0.00,CLR,,0.00,WeatherDisplay:10.37,2013-03-29 07:50:00,
2013-03-29 04:00:00,30.0,12.1,30.22,WNW,292,0.0,0.0,47,0.00,CLR,,0.00,WeatherDisplay:10.37,2013-03-29 08:00:00,
2013-03-29 04:10:00,30.0,11.7,30.22,WNW,292,0.0,0.0,46,0.00,CLR,,0.00,WeatherDisplay:10.37,2013-03-29 08:10:00,
2013-03-29 04:20:00,29.7,11.9,30.22,WNW,292,0.0,0.0,47,0.00,CLR,,0.00,WeatherDisplay:10.37,2013-03-29 08:20:00,
2013-03-29 04:30:00,29.5,11.7,30.22,North,360,0.0,0.0,47,0.00,CLR,,0.00,WeatherDisplay:10.37,2013-03-29 08:30:00,
2013-03-29 04:40:00,29.5,11.7,30.19,North,350,0.0,0.0,47,0.00,CLR,,0.00,WeatherDisplay:10.37,2013-03-29 08:40:00,
2013-03-29 04:50:00,29.7,11.4,30.19,North,350,0.0,0.0,46,0.00,CLR,,0.00,WeatherDisplay:10.37,2013-03-29 08:50:00,
2013-03-29 05:00:00,29.7,11.4,30.19,NNW,338,0.0,0.0,46,0.00,CLR,,0.00,WeatherDisplay:10.37,2013-03-29 09:00:00,
2013-03-29 05:10:00,29.3,11.1,30.22,NNW,338,0.0,0.0,46,0.00,CLR,,0.00,WeatherDisplay:10.37,2013-03-29 09:10:00,
2013-03-29 05:20:00,29.1,10.4,30.22,NW,309,0.0,0.0,45,0.00,CLR,,0.00,WeatherDisplay:10.37,2013-03-29 09:20:00,
2013-03-29 05:30:00,28.8,10.1,30.22,WNW,292,0.0,0.0,45,0.00,CLR,,0.00,WeatherDisplay:10.37,2013-03-29 09:30:00,
2013-03-29 05:40:00,28.6,10.4,30.22,WNW,292,0.0,0.0,46,0.00,CLR,,0.00,WeatherDisplay:10.37,2013-03-29 09:40:00,
2013-03-29 05:50:00,28.4,10.7,30.22,WNW,292,0.0,0.0,47,0.00,CLR,,0.00,WeatherDisplay:10.37,2013-03-29 09:50:00,
2013-03-29 06:00:00,28.2,11.5,30.22,WNW,292,0.0,0.0,49,0.00,CLR,,0.00,WeatherDisplay:10.37,2013-03-29 10:00:00,
2013-03-29 06:10:00,28.2,11.9,30.22,WNW,292,0.0,0.0,50,0.00,CLR,,0.00,WeatherDisplay:10.37,2013-03-29 10:10:00,
2013-03-29 06:20:00,28.0,11.3,30.22,WNW,292,0.0,0.0,49,0.00,CLR,,0.00,WeatherDisplay:10.37,2013-03-29 10:20:00,
2013-03-29 06:30:00,28.0,11.8,30.22,WNW,292,0.0,0.0,50,0.00,CLR,,0.00,WeatherDisplay:10.37,2013-03-29 10:30:00,
2013-03-29 06:40:00,28.2,11.9,30.22,WNW,292,0.0,0.0,50,0.00,CLR,,0.00,WeatherDisplay:10.37,2013-03-29 10:40:00,
2013-03-29 06:50:00,28.2,11.5,30.22,WNW,292,0.0,0.0,49,0.00,CLR,,0.00,WeatherDisplay:10.37,2013-03-29 10:50:00,
2013-03-29 07:00:00,28.2,12.4,30.22,NW,325,0.0,0.0,51,0.00,CLR,,0.00,WeatherDisplay:10.37,2013-03-29 11:00:00,
2013-03-29 07:10:00,28.2,11.9,30.22,NNW,338,0.0,0.0,50,0.00,CLR,,0.00,WeatherDisplay:10.37,2013-03-29 11:10:00,
2013-03-29 07:20:00,28.0,12.2,30.22,NW,316,0.0,0.0,51,0.00,CLR,,0.00,WeatherDisplay:10.37,2013-03-29 11:20:00,
2013-03-29 07:30:00,28.0,12.7,30.22,NW,315,0.0,0.0,52,0.00,CLR,,0.00,WeatherDisplay:10.37,2013-03-29 11:30:00,
2013-03-29 07:40:00,28.2,12.8,30.22,NW,315,0.0,0.0,52,0.00,CLR,,0.00,WeatherDisplay:10.37,2013-03-29 11:40:00,
2013-03-29 07:50:00,28.4,13.9,30.25,North,10,0.0,0.0,54,0.00,CLR,,0.00,WeatherDisplay:10.37,2013-03-29 11:50:00,
2013-03-29 08:00:00,28.7,14.1,30.25,ENE,66,0.0,0.0,54,0.00,CLR,,0.00,WeatherDisplay:10.37,2013-03-29 12:00:00,
2013-03-29 08:10:00,29.5,14.9,30.25,North,10,0.0,0.0,54,0.00,CLR,,0.00,WeatherDisplay:10.37,2013-03-29 12:10:00,
2013-03-29 08:20:00,31.1,16.0,30.22,NE,48,1.0,2.0,53,0.00,CLR,,0.00,WeatherDisplay:10.37,2013-03-29 12:20:00,
2013-03-29 08:30:00,32.6,16.9,30.22,ENE,65,1.0,2.0,52,0.00,CLR,,0.00,WeatherDisplay:10.37,2013-03-29 12:30:00,
2013-03-29 08:40:00,33.9,17.2,30.25,ENE,68,2.0,2.0,50,0.00,CLR,,0.00,WeatherDisplay:10.37,2013-03-29 12:40:00,
2013-03-29 08:50:00,34.9,16.7,30.22,ENE,67,2.0,2.0,47,0.00,CLR,,0.00,WeatherDisplay:10.37,2013-03-29 12:50:00,
2013-03-29 09:00:00,36.1,16.8,30.22,NE,56,0.0,2.0,45,0.00,CLR,,0.00,WeatherDisplay:10.37,2013-03-29 13:00:00,
2013-03-29 09:10:00,37.3,16.8,30.25,SSE,154,2.0,3.0,43,0.00,CLR,,0.00,WeatherDisplay:10.37,2013-03-29 13:10:00,
2013-03-29 09:20:00,38.5,17.9,30.25,SSW,192,1.0,3.0,43,0.00,CLR,,0.00,WeatherDisplay:10.37,2013-03-29 13:20:00,
2013-03-29 09:30:00,39.6,17.8,30.25,SSW,197,3.0,5.0,41,0.00,CLR,,0.00,WeatherDisplay:10.37,2013-03-29 13:30:00,
2013-03-29 09:40:00,40.8,18.3,30.25,South,190,1.0,3.0,40,0.00,CLR,,0.00,WeatherDisplay:10.37,2013-03-29 13:40:00,
2013-03-29 09:50:00,41.7,18.5,30.25,SW,219,1.0,2.0,39,0.00,CLR,,0.00,WeatherDisplay:10.37,2013-03-29 13:50:00,
2013-03-29 10:00:00,42.4,18.6,30.25,SW,228,0.0,3.0,38,0.00,CLR,,0.00,WeatherDisplay:10.37,2013-03-29 14:00:00,
2013-03-29 10:10:00,42.9,17.1,30.25,SW,220,2.0,3.0,35,0.00,CLR,,0.00,WeatherDisplay:10.37,2013-03-29 14:10:00,
2013-03-29 10:20:00,44.0,18.1,30.25,SSW,202,2.0,4.0,35,0.00,CLR,,0.00,WeatherDisplay:10.37,2013-03-29 14:20:00,
2013-03-29 10:30:00,44.5,16.4,30.25,SW,228,3.0,6.0,32,0.00,CLR,,0.00,WeatherDisplay:10.37,2013-03-29 14:30:00,
2013-03-29 10:40:00,44.8,15.2,30.25,SSW,208,2.0,6.0,30,0.00,CLR,,0.00,WeatherDisplay:10.37,2013-03-29 14:40:00,
2013-03-29 10:50:00,45.3,15.6,30.25,SSW,198,5.0,8.0,30,0.00,CLR,,0.00,WeatherDisplay:10.37,2013-03-29 14:50:00,
2013-03-29 11:00:00,46.8,16.9,30.25,SSW,194,2.0,6.0,30,0.00,CLR,,0.00,WeatherDisplay:10.37,2013-03-29 15:00:00,
2013-03-29 11:10:00,47.4,15.9,30.25,SW,223,3.0,9.0,28,0.00,CLR,,0.00,WeatherDisplay:10.37,2013-03-29 15:10:00,
2013-03-29 11:20:00,48.5,16.8,30.25,South,188,3.0,8.0,28,0.00,CLR,,0.00,WeatherDisplay:10.37,2013-03-29 15:20:00,
2013-03-29 11:30:00,48.4,16.7,30.25,SSW,209,2.0,9.0,28,0.00,CLR,,0.00,WeatherDisplay:10.37,2013-03-29 15:30:00,
2013-03-29 11:40:00,48.2,15.7,30.25,SSW,200,3.0,9.0,27,0.00,CLR,,0.00,WeatherDisplay:10.37,2013-03-29 15:40:00,
2013-03-29 12:00:00,49.5,16.8,30.25,South,189,6.0,9.0,27,0.00,CLR,,0.00,WeatherDisplay:10.37,2013-03-29 16:00:00,
2013-03-29 12:10:00,49.6,17.0,30.25,SSW,205,2.0,8.0,27,0.00,CLR,,0.00,WeatherDisplay:10.37,2013-03-29 16:10:00,
2013-03-29 12:20:00,49.8,17.1,30.25,SSW,199,3.0,8.0,27,0.00,CLR,,0.00,WeatherDisplay:10.37,2013-03-29 16:20:00,
2013-03-29 12:30:00,49.8,17.1,30.25,SSW,196,3.0,10.0,27,0.00,CLR,,0.00,WeatherDisplay:10.37,2013-03-29 16:30:00,
2013-03-29 12:40:00,50.0,16.4,30.25,SSW,200,5.0,8.0,26,0.00,CLR,,0.00,WeatherDisplay:10.37,2013-03-29 16:40:00,
2013-03-29 12:50:00,50.1,14.7,30.25,SSW,212,2.0,6.0,24,0.00,CLR,,0.00,WeatherDisplay:10.37,2013-03-29 16:50:00,
2013-03-29 13:00:00,50.2,14.7,30.25,SSW,208,5.0,10.0,24,0.00,CLR,,0.00,WeatherDisplay:10.37,2013-03-29 17:00:00,
2013-03-29 13:10:00,50.5,16.9,30.25,SSW,196,3.0,10.0,26,0.00,CLR,,0.00,WeatherDisplay:10.37,2013-03-29 17:10:00,
2013-03-29 13:20:00,50.9,17.2,30.25,SSW,200,5.0,9.0,26,0.00,CLR,,0.00,WeatherDisplay:10.37,2013-03-29 17:20:00,
2013-03-29 13:30:00,50.4,14.9,30.25,SSW,197,5.0,8.0,24,0.00,CLR,,0.00,WeatherDisplay:10.37,2013-03-29 17:30:00,
2013-03-29 13:40:00,50.7,15.2,30.22,SSW,200,3.0,8.0,24,0.00,CLR,,0.00,WeatherDisplay:10.37,2013-03-29 17:40:00,
2013-03-29 13:50:00,50.5,15.0,30.25,SW,235,3.0,9.0,24,0.00,CLR,,0.00,WeatherDisplay:10.37,2013-03-29 17:50:00,
2013-03-29 14:00:00,50.0,14.6,30.25,SSW,211,3.0,9.0,24,0.00,CLR,,0.00,WeatherDisplay:10.37,2013-03-29 18:00:00,
2013-03-29 14:10:00,50.2,14.7,30.22,SSW,212,6.0,8.0,24,0.00,CLR,,0.00,WeatherDisplay:10.37,2013-03-29 18:10:00,
2013-03-29 14:20:00,50.2,11.7,30.22,SW,220,5.0,10.0,21,0.00,CLR,,0.00,WeatherDisplay:10.37,2013-03-29 18:20:00,
2013-03-29 14:30:00,50.2,11.7,30.22,SW,217,7.0,12.0,21,0.00,CLR,,0.00,WeatherDisplay:10.37,2013-03-29 18:30:00,
2013-03-29 14:40:00,50.0,11.5,30.22,SW,217,5.0,10.0,21,0.00,CLR,,0.00,WeatherDisplay:10.37,2013-03-29 18:40:00,
2013-03-29 14:50:00,49.8,11.4,30.22,SW,225,6.0,12.0,21,0.00,CLR,,0.00,WeatherDisplay:10.37,2013-03-29 18:50:00,
2013-03-29 15:00:00,50.4,11.8,30.22,SSW,207,6.0,9.0,21,0.00,CLR,,0.00,WeatherDisplay:10.37,2013-03-29 19:00:00,
2013-03-29 15:10:00,50.4,14.9,30.19,SSW,206,8.0,9.0,24,0.00,CLR,,0.00,WeatherDisplay:10.37,2013-03-29 19:10:00,
2013-03-29 15:20:00,50.1,14.7,30.19,SSW,196,8.0,12.0,24,0.00,CLR,,0.00,WeatherDisplay:10.37,2013-03-29 19:20:00,
2013-03-29 15:30:00,49.6,14.3,30.19,SSW,195,6.0,12.0,24,0.00,CLR,,0.00,WeatherDisplay:10.37,2013-03-29 19:30:00,
2013-03-29 15:40:00,49.7,14.3,30.19,SSW,205,6.0,11.0,24,0.00,CLR,,0.00,WeatherDisplay:10.37,2013-03-29 19:40:00,
2013-03-29 15:50:00,50.5,15.0,30.19,SSW,201,7.0,12.0,24,0.00,CLR,,0.00,WeatherDisplay:10.37,2013-03-29 19:50:00,
2013-03-29 16:00:00,49.6,13.2,30.19,SW,217,7.0,13.0,23,0.00,CLR,,0.00,WeatherDisplay:10.37,2013-03-29 20:00:00,
2013-03-29 16:10:00,49.6,14.3,30.22,SSW,205,5.0,12.0,24,0.00,CLR,,0.00,WeatherDisplay:10.37,2013-03-29 20:10:00,
2013-03-29 16:20:00,49.9,14.5,30.22,SW,221,8.0,12.0,24,0.00,CLR,,0.00,WeatherDisplay:10.37,2013-03-29 20:20:00,
2013-03-29 16:30:00,50.1,15.6,30.22,SSW,208,5.0,11.0,25,0.00,CLR,,0.00,WeatherDisplay:10.37,2013-03-29 20:30:00,
2013-03-29 16:40:00,50.4,14.9,30.22,SSW,192,6.0,14.0,24,0.00,CLR,,0.00,WeatherDisplay:10.37,2013-03-29 20:40:00,
2013-03-29 16:50:00,50.7,16.1,30.22,SSW,210,9.0,14.0,25,0.00,CLR,,0.00,WeatherDisplay:10.37,2013-03-29 20:50:00,
2013-03-29 17:00:00,50.4,16.8,30.22,SSW,198,7.0,12.0,26,0.00,CLR,,0.00,WeatherDisplay:10.37,2013-03-29 21:00:00,
2013-03-29 17:10:00,49.8,17.1,30.22,South,189,8.0,15.0,27,0.00,CLR,,0.00,WeatherDisplay:10.37,2013-03-29 21:10:00,
2013-03-29 17:20:00,48.5,17.6,30.22,SSW,197,9.0,19.0,29,0.00,CLR,,0.00,WeatherDisplay:10.37,2013-03-29 21:20:00,
2013-03-29 17:30:00,47.6,21.9,30.22,SSW,200,9.0,17.0,36,0.00,CLR,,0.00,WeatherDisplay:10.37,2013-03-29 21:30:00,
2013-03-29 17:40:00,46.6,22.3,30.19,SSW,198,9.0,20.0,38,0.00,CLR,,0.00,WeatherDisplay:10.37,2013-03-29 21:40:00,
2013-03-29 17:50:00,45.4,23.0,30.19,SSW,195,8.0,15.0,41,0.00,CLR,,0.00,WeatherDisplay:10.37,2013-03-29 21:50:00,
2013-03-29 18:00:00,44.4,24.4,30.19,SSW,195,9.0,18.0,45,0.00,CLR,,0.00,WeatherDisplay:10.37,2013-03-29 22:00:00,
2013-03-29 18:10:00,43.9,25.5,30.19,SSW,208,6.0,9.0,48,0.00,CLR,,0.00,WeatherDisplay:10.37,2013-03-29 22:10:00,
2013-03-29 18:20:00,43.5,25.6,30.19,SSW,204,5.0,10.0,49,0.00,CLR,,0.00,WeatherDisplay:10.37,2013-03-29 22:20:00,
2013-03-29 18:30:00,42.9,25.5,30.19,SSW,198,10.0,19.0,50,0.00,CLR,,0.00,WeatherDisplay:10.37,2013-03-29 22:30:00,
2013-03-29 18:40:00,42.4,27.0,30.19,SSW,201,8.0,13.0,54,0.00,CLR,,0.00,WeatherDisplay:10.37,2013-03-29 22:40:00,
2013-03-29 18:50:00,42.1,27.1,30.19,SSW,198,9.0,14.0,55,0.00,CLR,,0.00,WeatherDisplay:10.37,2013-03-29 22:50:00,
2013-03-29 19:00:00,41.7,27.6,30.19,SSW,196,7.0,15.0,57,0.00,CLR,,0.00,WeatherDisplay:10.37,2013-03-29 23:00:00,
2013-03-29 19:10:00,41.5,28.3,30.19,SSW,202,5.0,12.0,59,0.00,CLR,,0.00,WeatherDisplay:10.37,2013-03-29 23:10:00,
2013-03-29 19:20:00,41.2,28.3,30.19,SSW,199,7.0,12.0,60,0.00,CLR,,0.00,WeatherDisplay:10.37,2013-03-29 23:20:00,
2013-03-29 19:30:00,41.0,29.4,30.19,SSW,192,7.0,10.0,63,0.00,CLR,,0.00,WeatherDisplay:10.37,2013-03-29 23:30:00,
2013-03-29 19:40:00,40.6,30.2,30.19,SSW,195,6.0,11.0,66,0.00,CLR,,0.00,WeatherDisplay:10.37,2013-03-29 23:40:00,
2013-03-29 19:50:00,40.5,30.4,30.19,SSW,192,6.0,9.0,67,0.00,CLR,,0.00,WeatherDisplay:10.37,2013-03-29 23:50:00,
2013-03-29 20:00:00,40.3,30.6,30.19,SSW,199,5.0,9.0,68,0.00,CLR,,0.00,WeatherDisplay:10.37,2013-03-30 00:00:00,
2013-03-29 20:10:00,39.9,30.2,30.19,SSW,195,7.0,12.0,68,0.00,CLR,,0.00,WeatherDisplay:10.37,2013-03-30 00:10:00,
2013-03-29 20:20:00,39.9,30.6,30.19,SSW,198,3.0,10.0,69,0.00,CLR,,0.00,WeatherDisplay:10.37,2013-03-30 00:20:00,
2013-03-29 20:30:00,39.7,31.1,30.19,South,191,5.0,11.0,71,0.00,CLR,,0.00,WeatherDisplay:10.37,2013-03-30 00:30:00,
2013-03-29 20:40:00,39.6,31.3,30.19,SSW,198,3.0,8.0,72,0.00,CLR,,0.00,WeatherDisplay:10.37,2013-03-30 00:40:00,
2013-03-29 20:50:00,39.6,31.6,30.19,SSW,205,2.0,6.0,73,0.00,CLR,,0.00,WeatherDisplay:10.37,2013-03-30 00:50:00,
2013-03-29 21:00:00,39.6,32.3,30.19,SSW,205,5.0,8.0,75,0.00,CLR,,0.00,WeatherDisplay:10.37,2013-03-30 01:00:00,
2013-03-29 21:10:00,39.6,32.3,30.19,SSW,202,2.0,9.0,75,0.00,CLR,,0.00,WeatherDisplay:10.37,2013-03-30 01:10:00,
2013-03-29 21:20:00,39.6,32.6,30.19,SSW,200,3.0,8.0,76,0.00,CLR,,0.00,WeatherDisplay:10.37,2013-03-30 01:20:00,
2013-03-29 21:30:00,39.6,32.6,30.19,SSW,202,3.0,7.0,76,0.00,CLR,,0.00,WeatherDisplay:10.37,2013-03-30 01:30:00,
2013-03-29 21:40:00,39.6,32.6,30.19,SSW,206,3.0,7.0,76,0.00,CLR,,0.00,WeatherDisplay:10.37,2013-03-30 01:40:00,
2013-03-29 21:50:00,39.6,32.6,30.19,SSW,205,2.0,5.0,76,0.00,CLR,,0.00,WeatherDisplay:10.37,2013-03-30 01:50:00,
2013-03-29 22:00:00,39.4,32.1,30.19,SSW,201,2.0,6.0,75,0.00,CLR,,0.00,WeatherDisplay:10.37,2013-03-30 02:00:00,
2013-03-29 22:10:00,39.6,32.3,30.19,SW,224,2.0,5.0,75,0.00,CLR,,0.00,WeatherDisplay:10.37,2013-03-30 02:10:00,
2013-03-29 22:20:00,39.6,32.3,30.19,SW,214,1.0,5.0,75,0.00,CLR,,0.00,WeatherDisplay:10.37,2013-03-30 02:20:00,
2013-03-29 22:30:00,39.4,32.1,30.19,SW,220,2.0,4.0,75,0.00,CLR,,0.00,WeatherDisplay:10.37,2013-03-30 02:30:00,
2013-03-29 22:40:00,39.6,32.3,30.19,SSW,206,3.0,4.0,75,0.00,CLR,,0.00,WeatherDisplay:10.37,2013-03-30 02:40:00,
2013-03-29 22:50:00,39.4,31.8,30.19,SSW,203,2.0,5.0,74,0.00,CLR,,0.00,WeatherDisplay:10.37,2013-03-30 02:50:00,
2013-03-29 23:00:00,39.4,31.8,30.19,SSW,199,2.0,3.0,74,0.00,CLR,,0.00,WeatherDisplay:10.37,2013-03-30 03:00:00,
2013-03-29 23:10:00,39.3,31.0,30.19,SSW,197,2.0,5.0,72,0.00,CLR,,0.00,WeatherDisplay:10.37,2013-03-30 03:10:00,
2013-03-29 23:20:00,39.2,30.9,30.19,SSW,202,2.0,4.0,72,0.00,CLR,,0.00,WeatherDisplay:10.37,2013-03-30 03:20:00,
2013-03-29 23:30:00,39.0,30.8,30.19,SSW,200,0.0,2.0,72,0.00,CLR,,0.00,WeatherDisplay:10.37,2013-03-30 03:30:00,
2013-03-29 23:40:00,38.8,30.6,30.19,South,178,0.0,2.0,72,0.00,CLR,,0.00,WeatherDisplay:10.37,2013-03-30 03:40:00,
2013-03-29 23:50:00,38.7,30.4,30.16,ESE,113,0.0,2.0,72,0.00,CLR,,0.00,WeatherDisplay:10.37,2013-03-30 03:50:00,